Time;durP1;ratioP1;P1;durP2;ratioP2;P2;SDS_P1;SDS_P2;PMS_P1;PMS_P2;Temp;Humidity;BMP_temperature;BMP_pressure;BME280_temperature;BME280_humidity;BME280_pressure;Samples;Min_cycle;Max_cycle;Signal;HPM_P1;HPM_P2
2021/01/17 00:00:32;;;;;;;1261.65;195.85;;;-0.10;95.60;;;;;;5012775;28;20222;-78
2021/01/17 00:02:59;;;;;;;30.70;28.10;;;0.00;94.40;;;;;;5019228;28;20198;-78
2021/01/17 00:05:28;;;;;;;31.50;28.90;;;0.00;92.20;;;;;;5015195;28;20209;-78
2021/01/17 00:07:54;;;;;;;31.13;28.48;;;0.00;90.70;;;;;;5013117;28;20225;-78
2021/01/17 00:10:23;;;;;;;32.85;30.15;;;-0.10;88.80;;;;;;5013064;28;20257;-78
2021/01/17 00:12:53;;;;;;;32.63;29.75;;;-0.10;89.00;;;;;;5014874;28;20257;-78
2021/01/17 00:15:19;;;;;;;1556.47;273.52;;;-0.10;91.00;;;;;;5033057;28;20224;-78
2021/01/17 00:17:47;;;;;;;1999.90;534.38;;;-0.10;93.70;;;;;;5032528;28;20218;-78
2021/01/17 00:20:15;;;;;;;612.95;93.35;;;-0.20;96.50;;;;;;5032610;28;20243;-78
2021/01/17 00:22:44;;;;;;;811.05;125.05;;;-0.20;96.60;;;;;;5032229;28;20205;-78
2021/01/17 00:25:15;;;;;;;1931.70;301.23;;;-0.20;96.40;;;;;;5013132;28;20279;-78
2021/01/17 00:27:41;;;;;;;31.33;28.52;;;-0.20;96.70;;;;;;5012847;28;20227;-77
2021/01/17 00:30:10;;;;;;;501.40;80.03;;;-0.10;95.90;;;;;;5012942;28;20199;-78
2021/01/17 00:32:36;;;;;;;1994.78;305.92;;;-0.20;93.50;;;;;;5012883;28;20204;-78
2021/01/17 00:35:04;;;;;;;30.75;27.55;;;-0.20;98.90;;;;;;5033061;28;20655;-78
2021/01/17 00:37:31;;;;;;;1999.90;447.13;;;-0.20;98.20;;;;;;5032744;28;20297;-78
2021/01/17 00:39:58;;;;;;;32.22;29.25;;;-0.30;96.80;;;;;;5033795;28;20640;-78
2021/01/17 00:42:24;;;;;;;31.90;28.90;;;-0.30;97.90;;;;;;5033361;28;20199;-77
2021/01/17 00:44:52;;;;;;;31.85;29.05;;;-0.20;95.70;;;;;;5014837;28;20198;-78
2021/01/17 00:47:19;;;;;;;33.00;29.75;;;-0.30;94.40;;;;;;5012720;28;20266;-78
2021/01/17 00:49:46;;;;;;;33.25;30.05;;;-0.30;93.50;;;;;;5012905;28;20571;-78
2021/01/17 00:52:16;;;;;;;30.15;27.38;;;-0.30;92.40;;;;;;5014396;28;20618;-78
2021/01/17 00:54:43;;;;;;;127.07;36.22;;;-0.40;92.20;;;;;;5031718;28;20210;-77
2021/01/17 00:57:10;;;;;;;559.55;102.05;;;-0.30;94.40;;;;;;5035054;28;20257;-78
2021/01/17 00:59:36;;;;;;;50.60;30.92;;;-0.30;93.90;;;;;;5036091;28;20219;-78
2021/01/17 01:02:04;;;;;;;102.22;34.95;;;-0.30;94.00;;;;;;5036114;28;20676;-78
2021/01/17 01:04:30;;;;;;;31.20;28.40;;;-0.30;96.30;;;;;;5023618;28;20252;-78
2021/01/17 01:06:57;;;;;;;962.03;136.93;;;-0.20;94.00;;;;;;5021021;28;20226;-78
2021/01/17 01:09:24;;;;;;;29.95;27.20;;;-0.20;92.70;;;;;;5016472;28;20195;-78
2021/01/17 01:11:50;;;;;;;31.40;28.60;;;-0.30;93.30;;;;;;5017677;28;20199;-78
2021/01/17 01:14:18;;;;;;;1999.90;624.60;;;-0.20;92.80;;;;;;5032630;28;20252;-78
2021/01/17 01:16:48;;;;;;;31.08;28.30;;;-0.20;96.50;;;;;;5042878;28;20214;-78
2021/01/17 01:19:14;;;;;;;32.22;29.02;;;-0.20;97.40;;;;;;5040250;28;20222;-78
2021/01/17 01:21:41;;;;;;;32.17;29.38;;;-0.30;94.80;;;;;;5023660;28;20259;-78
2021/01/17 01:24:08;;;;;;;32.03;29.15;;;-0.40;93.50;;;;;;5023964;28;20255;-78
2021/01/17 01:26:38;;;;;;;520.92;92.03;;;-0.40;92.50;;;;;;5038680;28;20613;-78
2021/01/17 01:29:05;;;;;;;33.20;30.50;;;-0.30;94.50;;;;;;5024144;28;20194;-78
2021/01/17 01:31:32;;;;;;;32.45;29.38;;;-0.40;93.00;;;;;;5023618;28;20203;-77
2021/01/17 01:33:59;;;;;;;99.00;36.38;;;-0.40;94.30;;;;;;5023628;28;20722;-78
2021/01/17 01:36:26;;;;;;;177.07;42.50;;;-0.30;93.40;;;;;;5040220;28;20221;-78
2021/01/17 01:38:54;;;;;;;33.20;30.13;;;-0.30;94.10;;;;;;5043352;28;20205;-78
2021/01/17 01:41:21;;;;;;;31.80;28.80;;;-0.40;92.90;;;;;;5040442;28;20732;-78
2021/01/17 01:43:48;;;;;;;34.50;31.00;;;-0.30;94.50;;;;;;5041555;28;20286;-78
2021/01/17 01:46:15;;;;;;;158.27;40.80;;;-0.40;95.00;;;;;;5023358;28;20195;-78
2021/01/17 01:48:44;;;;;;;34.08;30.98;;;-0.30;94.90;;;;;;5025828;28;20197;-78
2021/01/17 01:51:12;;;;;;;32.33;29.52;;;-0.20;92.70;;;;;;5035688;28;20211;-78
2021/01/17 01:53:39;;;;;;;377.15;67.13;;;-0.20;91.90;;;;;;5018330;28;20196;-78
2021/01/17 01:56:07;;;;;;;32.15;29.33;;;-0.20;93.40;;;;;;5015115;28;20196;-78
2021/01/17 01:58:34;;;;;;;38.70;32.38;;;-0.20;96.20;;;;;;5015099;28;20201;-78
2021/01/17 02:01:01;;;;;;;771.55;114.57;;;-0.10;95.40;;;;;;5015254;28;20278;-78
2021/01/17 02:03:27;;;;;;;1655.78;250.55;;;-0.20;93.90;;;;;;5030008;28;20200;-78
2021/01/17 02:05:54;;;;;;;594.33;100.13;;;-0.20;95.50;;;;;;5034290;28;20674;-78
2021/01/17 02:08:57;;;;;;;34.50;31.20;;;-0.20;93.70;;;;;;5035061;28;20314;-78
2021/01/17 02:11:33;;;;;;;35.30;31.85;;;-0.20;92.60;;;;;;5021707;28;20199;-77
2021/01/17 02:14:09;;;;;;;35.58;32.33;;;-0.30;90.20;;;;;;5022945;28;20197;-78
2021/01/17 02:16:37;;;;;;;35.28;32.25;;;-0.30;89.80;;;;;;5029185;28;20692;-78
2021/01/17 02:19:07;;;;;;;34.78;31.67;;;-0.40;89.50;;;;;;5014596;28;20239;-78
2021/01/17 02:21:37;;;;;;;35.33;32.22;;;-0.30;91.00;;;;;;5014576;28;20199;-78
2021/01/17 02:24:10;;;;;;;34.00;31.10;;;-0.30;89.70;;;;;;5015048;28;20669;-77
2021/01/17 02:26:38;;;;;;;64.22;33.90;;;-0.30;89.40;;;;;;5014542;28;20228;-78
2021/01/17 02:29:06;;;;;;;34.05;30.95;;;-0.40;93.00;;;;;;5014427;28;20200;-78
2021/01/17 02:31:34;;;;;;;34.78;31.45;;;-0.30;91.10;;;;;;5014215;28;20207;-78
2021/01/17 02:34:03;;;;;;;257.17;57.00;;;-0.30;90.00;;;;;;5014238;28;20211;-77
2021/01/17 02:36:41;;;;;;;1999.90;358.40;;;-0.30;94.10;;;;;;5026112;28;20302;-78
2021/01/17 02:39:13;;;;;;;33.60;30.65;;;-0.20;97.50;;;;;;5033320;28;20272;-78
2021/01/17 02:41:54;;;;;;;35.05;31.50;;;-0.20;96.50;;;;;;5034055;28;20207;-78
2021/01/17 02:44:21;;;;;;;35.70;32.00;;;-0.20;93.90;;;;;;5033939;28;20236;-78
2021/01/17 02:46:47;;;;;;;35.33;32.03;;;-0.30;92.50;;;;;;5020064;28;20218;-78
2021/01/17 02:49:14;;;;;;;34.95;31.63;;;-0.20;91.50;;;;;;5013862;28;20541;-77
2021/01/17 02:51:40;;;;;;;54.90;34.78;;;-0.20;90.90;;;;;;5013906;28;20281;-77
2021/01/17 02:54:10;;;;;;;493.30;84.63;;;-0.20;90.50;;;;;;5013746;28;20208;-78
2021/01/17 02:56:42;;;;;;;33.33;30.42;;;-0.20;96.50;;;;;;5026204;28;20219;-77
2021/01/17 02:59:13;;;;;;;34.92;31.67;;;-0.20;95.40;;;;;;5033531;28;20227;-77
2021/01/17 03:01:41;;;;;;;34.75;31.38;;;-0.20;93.30;;;;;;5034351;28;20665;-77
2021/01/17 03:04:19;;;;;;;446.63;76.85;;;-0.30;92.70;;;;;;5033409;28;20340;-78
2021/01/17 03:06:47;;;;;;;35.28;32.08;;;-0.20;94.80;;;;;;5017928;28;20216;-77
2021/01/17 03:09:14;;;;;;;34.17;30.98;;;-0.30;94.30;;;;;;4994163;28;20189;-78
2021/01/17 03:11:41;;;;;;;33.90;30.70;;;-0.20;93.60;;;;;;4994020;28;20197;-77
2021/01/17 03:14:09;;;;;;;50.92;33.75;;;-0.10;93.20;;;;;;5032434;28;20244;-77
2021/01/17 03:16:36;;;;;;;35.63;32.08;;;-0.20;92.40;;;;;;5029432;28;20215;-77
2021/01/17 03:19:02;;;;;;;35.17;32.00;;;-0.20;91.90;;;;;;5021112;28;20217;-78
2021/01/17 03:21:28;;;;;;;36.25;32.72;;;-0.20;91.10;;;;;;5032896;28;20561;-77
2021/01/17 03:23:55;;;;;;;37.03;33.40;;;-0.20;90.60;;;;;;5032949;28;20199;-77
2021/01/17 03:26:21;;;;;;;35.72;32.58;;;-0.30;90.20;;;;;;5032862;28;20339;-77
2021/01/17 03:28:48;;;;;;;36.67;33.17;;;-0.30;90.40;;;;;;5032818;28;20198;-77
2021/01/17 03:31:15;;;;;;;37.00;33.65;;;-0.30;90.10;;;;;;5032334;28;20199;-77
2021/01/17 03:33:41;;;;;;;1856.15;287.13;;;-0.20;90.10;;;;;;5033009;28;20199;-77
2021/01/17 03:36:07;;;;;;;37.30;33.58;;;-0.20;91.80;;;;;;5032617;28;20299;-77
2021/01/17 03:38:34;;;;;;;866.33;142.32;;;-0.20;94.00;;;;;;5020904;28;20567;-77
2021/01/17 03:41:00;;;;;;;604.95;102.57;;;-0.10;96.90;;;;;;5013177;28;20314;-77
2021/01/17 03:43:27;;;;;;;1993.20;375.13;;;-0.10;95.30;;;;;;5013336;28;20206;-77
2021/01/17 03:45:54;;;;;;;36.85;33.17;;;-0.10;98.40;;;;;;5012951;28;20202;-77
2021/01/17 03:48:20;;;;;;;42.85;34.00;;;-0.10;98.50;;;;;;5012970;28;20223;-77
2021/01/17 03:50:46;;;;;;;36.65;33.10;;;0.00;98.60;;;;;;5025584;28;20194;-77
2021/01/17 03:53:13;;;;;;;848.13;145.13;;;-0.10;95.70;;;;;;5033056;28;20302;-77
2021/01/17 03:55:39;;;;;;;37.25;33.70;;;0.00;94.50;;;;;;5032569;28;20211;-77
2021/01/17 03:58:05;;;;;;;35.05;31.73;;;0.00;94.20;;;;;;5033436;28;20379;-77
2021/01/17 04:00:32;;;;;;;35.25;32.00;;;0.00;92.70;;;;;;5022970;28;20302;-77
2021/01/17 04:02:59;;;;;;;36.33;32.83;;;-0.10;92.30;;;;;;5013948;28;20692;-77
2021/01/17 04:05:26;;;;;;;36.17;32.47;;;-0.10;91.50;;;;;;5031289;28;20206;-77
2021/01/17 04:07:52;;;;;;;36.35;33.00;;;-0.10;91.00;;;;;;5024258;28;20269;-77
2021/01/17 04:10:18;;;;;;;36.08;32.72;;;-0.20;90.10;;;;;;5013035;28;20192;-77
2021/01/17 04:12:45;;;;;;;35.38;32.10;;;-0.20;89.80;;;;;;5026971;28;20224;-77
2021/01/17 04:15:12;;;;;;;34.65;31.05;;;-0.10;90.00;;;;;;5029283;28;20493;-77
2021/01/17 04:17:38;;;;;;;35.72;32.53;;;0.00;89.00;;;;;;5014950;28;20299;-77
2021/01/17 04:20:06;;;;;;;35.90;32.47;;;0.00;89.40;;;;;;5014847;28;20226;-77
2021/01/17 04:22:36;;;;;;;81.40;36.15;;;0.00;89.40;;;;;;5023506;28;20708;-77
2021/01/17 04:25:03;;;;;;;36.58;33.08;;;0.00;89.60;;;;;;5034476;28;20563;-77
2021/01/17 04:27:30;;;;;;;292.00;61.85;;;0.00;88.30;;;;;;5034022;28;20218;-77
2021/01/17 04:29:56;;;;;;;36.40;33.10;;;0.10;90.10;;;;;;5032572;28;20194;-77
2021/01/17 04:32:23;;;;;;;277.10;57.03;;;0.00;94.10;;;;;;5018076;28;20227;-77
2021/01/17 04:34:50;;;;;;;36.80;33.03;;;0.00;96.20;;;;;;5018397;28;20249;-77
2021/01/17 04:37:21;;;;;;;36.10;32.55;;;-0.10;93.20;;;;;;5019332;28;20303;-77
2021/01/17 04:39:47;;;;;;;36.95;33.38;;;-0.10;92.00;;;;;;5019293;28;20223;-77
2021/01/17 04:42:17;;;;;;;36.70;33.30;;;-0.10;91.90;;;;;;5017373;28;20197;-77
2021/01/17 04:44:50;;;;;;;37.05;33.45;;;0.00;91.20;;;;;;5034352;28;20199;-77
2021/01/17 04:47:18;;;;;;;93.47;35.92;;;0.00;92.90;;;;;;5036182;28;20223;-77
2021/01/17 04:49:47;;;;;;;35.67;32.28;;;0.10;93.40;;;;;;5036455;28;20204;-77
2021/01/17 04:52:14;;;;;;;37.40;33.30;;;0.00;93.40;;;;;;5036055;28;20195;-77
2021/01/17 04:54:41;;;;;;;169.73;43.47;;;0.00;92.50;;;;;;5032154;28;20577;-77
2021/01/17 04:57:12;;;;;;;36.45;32.95;;;0.10;92.30;;;;;;5017227;28;20308;-77
2021/01/17 04:59:46;;;;;;;1123.05;168.30;;;0.10;91.60;;;;;;5016503;28;20220;-77
2021/01/17 05:02:25;;;;;;;77.60;37.03;;;0.10;91.30;;;;;;5016173;28;20254;-77
2021/01/17 05:05:16;;;;;;;1999.90;526.63;;;0.10;97.50;;;;;;5019700;28;20191;-77
2021/01/17 05:07:50;;;;;;;37.95;33.83;;;0.10;99.00;;;;;;5035466;28;20377;-77
2021/01/17 05:10:34;;;;;;;35.47;31.95;;;0.10;97.50;;;;;;5035622;28;20196;-77
2021/01/17 05:13:09;;;;;;;102.10;41.22;;;0.20;96.00;;;;;;5035832;28;20228;-77
2021/01/17 05:15:38;;;;;;;38.70;34.42;;;0.10;97.60;;;;;;5025263;28;20251;-77
2021/01/17 05:18:05;;;;;;;1999.90;814.47;;;0.00;96.20;;;;;;5015587;28;20228;-77
2021/01/17 05:20:32;;;;;;;52.58;37.33;;;0.00;98.40;;;;;;5015725;28;20230;-77
2021/01/17 05:22:59;;;;;;;1070.25;170.65;;;0.10;98.80;;;;;;5015681;28;20199;-77
2021/01/17 05:25:28;;;;;;;36.13;32.58;;;0.10;97.10;;;;;;5018848;28;20559;-77
2021/01/17 05:27:55;;;;;;;39.58;35.50;;;0.10;96.00;;;;;;5015456;28;20225;-77
2021/01/17 05:30:22;;;;;;;39.10;35.10;;;0.10;94.70;;;;;;5015417;28;20278;-77
2021/01/17 05:32:52;;;;;;;38.83;35.00;;;0.10;93.70;;;;;;5015341;28;20205;-77
2021/01/17 05:35:20;;;;;;;247.52;62.40;;;0.10;92.60;;;;;;5018125;28;20577;-77
2021/01/17 05:37:48;;;;;;;36.88;33.38;;;0.20;92.10;;;;;;5034900;28;20219;-77
2021/01/17 05:40:15;;;;;;;397.45;75.03;;;0.20;94.00;;;;;;5035007;28;20292;-77
2021/01/17 05:42:44;;;;;;;38.00;34.38;;;0.10;94.40;;;;;;5035174;28;20199;-77
2021/01/17 05:45:13;;;;;;;36.40;32.85;;;0.20;94.70;;;;;;5033862;28;20211;-77
2021/01/17 05:47:40;;;;;;;118.47;43.78;;;0.20;93.60;;;;;;5032022;28;20222;-77
2021/01/17 05:50:08;;;;;;;37.08;33.58;;;0.20;92.70;;;;;;5015122;28;20200;-77
2021/01/17 05:52:35;;;;;;;38.50;34.60;;;0.10;91.80;;;;;;5034060;28;20300;-77
2021/01/17 05:55:03;;;;;;;38.95;34.72;;;0.20;91.10;;;;;;5033148;28;20206;-77
2021/01/17 05:57:31;;;;;;;38.17;34.58;;;0.20;93.10;;;;;;5029960;28;20212;-77
2021/01/17 06:00:00;;;;;;;1999.90;825.53;;;0.20;91.50;;;;;;5014495;28;20318;-77
2021/01/17 06:02:27;;;;;;;41.72;37.55;;;0.20;94.70;;;;;;5014975;28;20204;-77
2021/01/17 06:04:56;;;;;;;38.75;35.17;;;0.20;93.90;;;;;;5023045;28;20198;-77
2021/01/17 06:07:23;;;;;;;37.88;33.97;;;0.30;93.10;;;;;;5032581;28;20222;-77
2021/01/17 06:09:57;;;;;;;37.50;33.85;;;0.40;91.80;;;;;;5034564;28;20224;-77
2021/01/17 06:12:30;;;;;;;34.95;31.75;;;0.30;90.80;;;;;;5034127;28;20207;-77
2021/01/17 06:15:07;;;;;;;557.67;86.50;;;0.30;93.30;;;;;;5034479;28;20206;-78
2021/01/17 06:17:35;;;;;;;1644.03;251.43;;;0.30;93.00;;;;;;5033980;28;20215;-77
2021/01/17 06:20:03;;;;;;;39.25;35.10;;;0.30;93.60;;;;;;5034326;28;20229;-77
2021/01/17 06:22:30;;;;;;;615.45;114.05;;;0.30;94.00;;;;;;5034201;28;20204;-77
2021/01/17 06:25:01;;;;;;;38.30;35.00;;;0.30;92.80;;;;;;5034225;28;20207;-77
2021/01/17 06:27:28;;;;;;;38.55;34.83;;;0.30;93.10;;;;;;5033958;28;20228;-77
2021/01/17 06:29:56;;;;;;;39.22;34.47;;;0.30;92.50;;;;;;5034168;28;20241;-77
2021/01/17 06:32:24;;;;;;;101.00;41.10;;;0.30;92.50;;;;;;5033983;28;20253;-77
2021/01/17 06:34:52;;;;;;;40.13;36.03;;;0.40;92.10;;;;;;5034152;28;20287;-77
2021/01/17 06:37:19;;;;;;;38.38;34.67;;;0.30;91.30;;;;;;5033597;28;20431;-77
2021/01/17 06:39:51;;;;;;;39.22;35.20;;;0.40;91.20;;;;;;5033879;28;20224;-78
2021/01/17 06:42:18;;;;;;;37.92;34.17;;;0.30;91.40;;;;;;5033994;28;20210;-78
2021/01/17 06:44:46;;;;;;;37.38;33.83;;;0.30;91.10;;;;;;5034006;28;20199;-77
2021/01/17 06:47:20;;;;;;;36.03;32.75;;;0.20;91.50;;;;;;5033557;28;20243;-77
2021/01/17 06:49:49;;;;;;;36.75;33.40;;;0.30;91.30;;;;;;5033889;28;20202;-77
2021/01/17 06:52:16;;;;;;;37.97;34.38;;;0.20;90.90;;;;;;5033887;28;20208;-77
2021/01/17 06:54:45;;;;;;;1325.45;202.98;;;0.20;91.10;;;;;;5035198;28;20213;-77
2021/01/17 06:57:12;;;;;;;38.33;34.58;;;0.30;91.80;;;;;;5033389;28;20223;-77
2021/01/17 06:59:40;;;;;;;352.67;66.60;;;0.20;92.80;;;;;;5033072;28;20226;-77
2021/01/17 07:02:40;;;;;;;269.10;61.30;;;0.20;93.90;;;;;;5033597;28;20200;-77
2021/01/17 07:05:50;;;;;;;38.70;34.88;;;0.30;96.80;;;;;;5028843;28;20290;-77
2021/01/17 07:08:57;;;;;;;38.22;34.60;;;0.30;95.90;;;;;;5026612;28;20585;-77
2021/01/17 07:11:51;;;;;;;39.95;35.65;;;0.30;94.30;;;;;;5033601;28;20195;-77
2021/01/17 07:14:17;;;;;;;160.80;45.50;;;0.30;93.60;;;;;;5033596;28;20252;-77
2021/01/17 07:16:49;;;;;;;107.28;40.45;;;0.40;94.40;;;;;;5033152;28;20639;-77
2021/01/17 07:19:20;;;;;;;291.00;67.68;;;0.40;93.30;;;;;;5033144;28;20547;-77
2021/01/17 07:21:50;;;;;;;41.47;37.20;;;0.40;95.00;;;;;;5033227;28;20204;-77
2021/01/17 07:24:20;;;;;;;41.67;37.42;;;0.40;94.60;;;;;;5033116;28;20201;-77
2021/01/17 07:27:16;;;;;;;42.00;37.90;;;0.30;93.20;;;;;;5032984;28;20222;-77
2021/01/17 07:29:44;;;;;;;39.58;35.25;;;0.40;93.20;;;;;;5033572;28;20193;-77
2021/01/17 07:32:31;;;;;;;1999.90;646.72;;;0.40;92.50;;;;;;5033456;28;20206;-77
2021/01/17 07:35:06;;;;;;;37.72;33.70;;;0.40;95.50;;;;;;5032971;28;20200;-77
2021/01/17 07:37:34;;;;;;;40.90;36.88;;;0.50;94.60;;;;;;5032555;28;20558;-77
2021/01/17 07:40:08;;;;;;;535.38;105.38;;;0.60;93.80;;;;;;5032778;28;20224;-77
2021/01/17 07:42:35;;;;;;;260.10;63.47;;;0.50;93.50;;;;;;5032934;28;20207;-77
2021/01/17 07:45:15;;;;;;;42.00;37.55;;;0.60;93.50;;;;;;5032928;28;20199;-77
2021/01/17 07:47:43;;;;;;;44.85;39.65;;;0.70;92.40;;;;;;5032785;28;20590;-78
2021/01/17 07:50:11;;;;;;;185.57;50.08;;;0.80;91.80;;;;;;5034014;28;20607;-77
2021/01/17 07:52:43;;;;;;;42.17;37.70;;;0.70;91.40;;;;;;5034419;28;20628;-77
2021/01/17 07:55:12;;;;;;;44.63;40.13;;;0.70;90.60;;;;;;5033208;28;20218;-77
2021/01/17 07:57:38;;;;;;;39.50;35.50;;;0.70;91.80;;;;;;5032545;28;20627;-77
2021/01/17 08:00:06;;;;;;;39.90;35.80;;;0.70;91.80;;;;;;5032309;28;20216;-77
2021/01/17 08:02:35;;;;;;;42.50;38.10;;;0.60;91.10;;;;;;5033050;28;20205;-77
2021/01/17 08:05:03;;;;;;;42.95;38.65;;;0.70;90.60;;;;;;5032709;28;20273;-77
2021/01/17 08:07:34;;;;;;;38.85;35.15;;;0.70;91.10;;;;;;5031782;28;20221;-77
2021/01/17 08:10:01;;;;;;;39.08;35.17;;;0.80;90.80;;;;;;5032494;28;20665;-77
2021/01/17 08:12:42;;;;;;;38.42;34.63;;;0.80;90.20;;;;;;5032544;28;20205;-77
2021/01/17 08:15:29;;;;;;;58.17;38.70;;;0.80;89.80;;;;;;5032558;28;20199;-77
2021/01/17 08:17:55;;;;;;;1731.80;248.32;;;0.90;90.00;;;;;;5032363;28;20220;-77
2021/01/17 08:20:32;;;;;;;1948.90;313.50;;;0.90;90.10;;;;;;5032441;28;20277;-77
2021/01/17 08:23:03;;;;;;;41.25;36.95;;;0.90;92.60;;;;;;5032495;28;20207;-77
2021/01/17 08:25:55;;;;;;;42.40;38.30;;;1.00;92.00;;;;;;5032333;28;20233;-78
2021/01/17 08:28:45;;;;;;;42.03;37.50;;;1.00;90.80;;;;;;5032463;28;20303;-77
2021/01/17 08:31:39;;;;;;;41.95;37.85;;;1.00;89.70;;;;;;5032959;28;20200;-77
2021/01/17 08:34:27;;;;;;;43.13;37.92;;;1.10;89.40;;;;;;5032350;28;20254;-77
2021/01/17 08:36:54;;;;;;;40.83;36.60;;;1.20;89.00;;;;;;5027512;28;20221;-77
2021/01/17 08:39:47;;;;;;;42.03;38.03;;;1.30;88.90;;;;;;5032354;28;20652;-77
2021/01/17 08:42:31;;;;;;;41.00;36.97;;;1.40;88.50;;;;;;5032240;28;20197;-77
2021/01/17 08:44:58;;;;;;;43.85;39.35;;;1.30;88.00;;;;;;5032242;28;20195;-77
2021/01/17 08:47:25;;;;;;;41.05;36.97;;;1.40;88.00;;;;;;5032043;28;20219;-77
2021/01/17 08:49:52;;;;;;;40.70;36.60;;;1.30;88.20;;;;;;5032267;28;20196;-77
2021/01/17 08:52:25;;;;;;;42.05;37.92;;;1.40;88.20;;;;;;5032174;28;20196;-77
2021/01/17 08:54:51;;;;;;;171.45;50.03;;;1.40;87.60;;;;;;5032074;28;20693;-77
2021/01/17 08:57:40;;;;;;;41.65;37.40;;;1.30;93.90;;;;;;5032015;28;20256;-77
2021/01/17 09:00:12;;;;;;;39.92;36.03;;;1.40;92.60;;;;;;5031706;28;20578;-77
2021/01/17 09:02:39;;;;;;;44.10;39.58;;;1.50;91.30;;;;;;5031857;28;20203;-77
2021/01/17 09:05:16;;;;;;;42.00;37.75;;;1.60;90.00;;;;;;5031770;28;20567;-77
2021/01/17 09:07:43;;;;;;;42.70;37.70;;;1.60;89.60;;;;;;5031938;28;20252;-77
2021/01/17 09:10:13;;;;;;;42.85;38.42;;;1.70;89.00;;;;;;5031836;28;20207;-77
2021/01/17 09:12:41;;;;;;;41.35;36.95;;;1.70;89.00;;;;;;5032066;28;20204;-77
2021/01/17 09:15:17;;;;;;;177.23;47.28;;;1.70;89.20;;;;;;5032355;28;20210;-77
2021/01/17 09:17:56;;;;;;;42.95;38.63;;;1.80;89.20;;;;;;5031795;28;20224;-77
2021/01/17 09:20:23;;;;;;;42.25;38.10;;;1.80;88.90;;;;;;5034882;28;20221;-77
2021/01/17 09:22:50;;;;;;;42.20;38.03;;;1.90;88.10;;;;;;5035329;28;20279;-77
2021/01/17 09:25:17;;;;;;;43.60;39.10;;;2.00;87.90;;;;;;5035634;28;20218;-77
2021/01/17 09:27:44;;;;;;;43.15;38.97;;;1.90;87.70;;;;;;5035063;28;20221;-77
2021/01/17 09:30:13;;;;;;;43.47;38.85;;;2.00;88.00;;;;;;5035229;28;20215;-77
2021/01/17 09:32:42;;;;;;;42.92;38.40;;;2.00;87.80;;;;;;5035121;28;20670;-77
2021/01/17 09:35:08;;;;;;;41.63;37.53;;;2.00;87.50;;;;;;5035316;28;20208;-77
2021/01/17 09:37:36;;;;;;;39.42;35.72;;;2.10;87.50;;;;;;5034865;28;20307;-77
2021/01/17 09:40:04;;;;;;;42.03;37.83;;;2.00;87.40;;;;;;5035002;28;20224;-77
2021/01/17 09:42:31;;;;;;;40.42;36.63;;;2.00;87.60;;;;;;5034872;28;20335;-77
2021/01/17 09:45:02;;;;;;;40.50;36.50;;;2.10;87.40;;;;;;5034962;28;20205;-77
2021/01/17 09:47:29;;;;;;;39.85;35.95;;;2.10;87.60;;;;;;5034840;28;20740;-77
2021/01/17 09:49:56;;;;;;;41.88;37.53;;;2.20;87.70;;;;;;5034903;28;20284;-77
2021/01/17 09:52:23;;;;;;;39.55;35.80;;;2.40;89.00;;;;;;5034840;28;20591;-77
2021/01/17 09:54:51;;;;;;;42.47;37.92;;;2.40;87.50;;;;;;5034610;28;20683;-77
2021/01/17 09:57:19;;;;;;;40.45;36.55;;;2.50;87.30;;;;;;5034516;28;20225;-77
2021/01/17 09:59:47;;;;;;;40.03;36.08;;;2.50;87.10;;;;;;5034395;28;20659;-77
2021/01/17 10:02:17;;;;;;;36.97;33.40;;;2.50;87.00;;;;;;5034708;28;20263;-77
2021/01/17 10:04:43;;;;;;;37.85;34.03;;;2.60;87.10;;;;;;5034414;28;20211;-77
2021/01/17 10:07:15;;;;;;;41.53;37.72;;;2.60;86.60;;;;;;5034410;28;20228;-76
2021/01/17 10:09:41;;;;;;;38.05;34.33;;;2.60;86.70;;;;;;5034493;28;20620;-76
2021/01/17 10:12:08;;;;;;;36.78;33.28;;;2.60;86.70;;;;;;5034232;28;20663;-76
2021/01/17 10:14:35;;;;;;;39.13;35.45;;;2.70;87.00;;;;;;5034241;28;20284;-76
2021/01/17 10:17:04;;;;;;;174.75;54.63;;;2.80;87.90;;;;;;5034132;28;20217;-76
2021/01/17 10:19:32;;;;;;;39.70;36.08;;;3.00;87.00;;;;;;5034348;28;20232;-76
2021/01/17 10:22:00;;;;;;;40.15;36.35;;;2.90;88.10;;;;;;5034234;28;20627;-77
2021/01/17 10:24:28;;;;;;;54.20;44.45;;;3.00;87.30;;;;;;5034545;28;20221;-76
2021/01/17 10:26:56;;;;;;;42.95;38.45;;;3.00;88.00;;;;;;5033924;28;20237;-76
2021/01/17 10:29:25;;;;;;;38.50;34.33;;;3.00;89.50;;;;;;5034217;28;20197;-76
2021/01/17 10:31:56;;;;;;;39.10;35.20;;;3.00;90.90;;;;;;5033452;28;20204;-76
2021/01/17 10:34:28;;;;;;;37.80;34.28;;;3.20;89.50;;;;;;5034069;28;20201;-76
2021/01/17 10:37:14;;;;;;;39.58;35.97;;;3.20;88.30;;;;;;5033583;28;20223;-77
2021/01/17 10:39:42;;;;;;;37.55;33.88;;;3.40;87.80;;;;;;5033826;28;20262;-76
2021/01/17 10:42:13;;;;;;;38.53;34.88;;;3.20;86.40;;;;;;5034102;28;20635;-76
2021/01/17 10:44:52;;;;;;;60.95;34.38;;;3.20;87.00;;;;;;5033950;28;20205;-77
2021/01/17 10:47:34;;;;;;;39.15;35.65;;;3.30;88.60;;;;;;5033604;28;20798;-76
2021/01/17 10:50:04;;;;;;;37.40;33.97;;;3.30;87.20;;;;;;5033668;28;21240;-76
2021/01/17 10:52:33;;;;;;;152.43;47.67;;;3.40;87.10;;;;;;5033805;28;20197;-76
2021/01/17 10:55:01;;;;;;;37.20;33.50;;;3.40;87.50;;;;;;5033479;28;20748;-76
2021/01/17 10:57:29;;;;;;;35.70;32.50;;;3.50;87.70;;;;;;5033328;28;20694;-76
2021/01/17 11:00:04;;;;;;;34.80;31.35;;;3.60;87.20;;;;;;5033158;28;20216;-76
2021/01/17 11:02:30;;;;;;;37.22;33.92;;;3.50;86.10;;;;;;5033507;28;20197;-76
2021/01/17 11:04:56;;;;;;;34.85;31.65;;;3.60;85.70;;;;;;5033206;28;20682;-76
2021/01/17 11:07:28;;;;;;;36.08;32.75;;;3.60;85.50;;;;;;5033066;28;20270;-76
2021/01/17 11:09:55;;;;;;;36.55;32.83;;;3.70;85.20;;;;;;5033232;28;20196;-76
2021/01/17 11:12:35;;;;;;;37.45;33.67;;;3.70;84.90;;;;;;5033248;28;20201;-76
2021/01/17 11:15:18;;;;;;;33.45;30.35;;;3.60;85.50;;;;;;5033086;28;20255;-76
2021/01/17 11:17:52;;;;;;;34.38;31.05;;;3.60;86.30;;;;;;5033113;28;20217;-76
2021/01/17 11:20:25;;;;;;;428.80;68.15;;;3.60;85.70;;;;;;5033215;28;20698;-77
2021/01/17 11:22:52;;;;;;;34.92;31.30;;;3.70;86.30;;;;;;5033075;28;20235;-77
2021/01/17 11:25:20;;;;;;;34.08;30.65;;;3.60;89.10;;;;;;5032959;28;20237;-76
2021/01/17 11:27:47;;;;;;;32.55;29.45;;;3.60;89.50;;;;;;5032713;28;20279;-76
2021/01/17 11:30:15;;;;;;;37.80;29.95;;;3.80;88.30;;;;;;5032893;28;20193;-76
2021/01/17 11:32:42;;;;;;;29.48;26.75;;;3.70;88.30;;;;;;5033012;28;20202;-76
2021/01/17 11:35:23;;;;;;;34.20;30.92;;;3.70;91.40;;;;;;5032783;28;20200;-76
2021/01/17 11:37:50;;;;;;;33.30;29.83;;;3.50;91.50;;;;;;5032765;28;20232;-76
2021/01/17 11:40:20;;;;;;;68.22;32.33;;;3.40;89.90;;;;;;5032779;28;20225;-76
2021/01/17 11:42:47;;;;;;;694.35;101.13;;;3.40;91.40;;;;;;5031928;28;20208;-76
2021/01/17 11:45:20;;;;;;;1150.30;156.15;;;3.30;91.40;;;;;;5032698;28;20219;-76
2021/01/17 11:47:46;;;;;;;33.15;30.27;;;3.40;91.80;;;;;;5032797;28;20222;-76
2021/01/17 11:50:17;;;;;;;33.13;30.02;;;3.40;90.90;;;;;;5032571;28;20205;-76
2021/01/17 11:52:45;;;;;;;35.40;32.25;;;3.30;89.70;;;;;;5032659;28;20716;-76
2021/01/17 11:55:13;;;;;;;33.97;30.80;;;3.30;90.90;;;;;;5032433;28;20609;-76
2021/01/17 11:57:40;;;;;;;31.30;28.30;;;3.20;90.70;;;;;;5032180;28;20794;-76
2021/01/17 12:00:08;;;;;;;32.90;30.00;;;3.10;89.90;;;;;;5032162;28;20209;-76
2021/01/17 12:02:40;;;;;;;33.28;30.58;;;3.10;89.80;;;;;;5032450;28;20566;-76
2021/01/17 12:05:08;;;;;;;32.10;29.55;;;3.10;88.90;;;;;;5032417;28;20193;-76
2021/01/17 12:07:34;;;;;;;31.33;28.70;;;3.00;89.10;;;;;;5032246;28;20290;-76
2021/01/17 12:10:06;;;;;;;30.48;27.73;;;3.10;89.70;;;;;;5032474;28;20682;-76
2021/01/17 12:12:36;;;;;;;33.03;29.67;;;3.20;90.10;;;;;;5032343;28;20674;-76
2021/01/17 12:15:04;;;;;;;31.02;28.30;;;3.20;88.80;;;;;;5032301;28;20254;-76
2021/01/17 12:17:31;;;;;;;31.13;28.63;;;3.10;89.30;;;;;;5032071;28;20221;-76
2021/01/17 12:19:57;;;;;;;78.88;34.97;;;3.10;88.00;;;;;;5032251;28;20263;-76
2021/01/17 12:22:24;;;;;;;36.33;33.15;;;3.10;89.50;;;;;;5032374;28;20324;-76
2021/01/17 12:24:50;;;;;;;36.75;33.17;;;3.10;89.80;;;;;;5032415;28;20211;-76
2021/01/17 12:27:17;;;;;;;36.45;33.20;;;3.10;88.80;;;;;;5032048;28;20698;-76
2021/01/17 12:29:43;;;;;;;37.25;33.85;;;3.00;89.90;;;;;;5032502;28;20292;-76
2021/01/17 12:32:10;;;;;;;37.33;33.72;;;3.00;89.50;;;;;;5032422;28;20198;-77
2021/01/17 12:34:36;;;;;;;35.05;32.15;;;3.10;88.70;;;;;;5032494;28;20193;-77
2021/01/17 12:37:03;;;;;;;34.38;31.40;;;2.90;88.20;;;;;;5032215;28;20217;-77
2021/01/17 12:39:29;;;;;;;76.22;35.78;;;2.80;90.00;;;;;;5032641;28;20201;-76
2021/01/17 12:41:57;;;;;;;54.92;31.55;;;2.90;89.60;;;;;;5032092;28;20642;-76
2021/01/17 12:44:23;;;;;;;32.38;29.38;;;3.00;90.10;;;;;;5032320;28;20205;-76